sensor_id;sensor_type;location;lat;lon;timestamp;P1;durP1;ratioP1;P2;durP2;ratioP2
11651;SDS011;5882;48.818;9.114;2022-12-26T00:01:23;1.77;;;1.40;;
11651;SDS011;5882;48.818;9.114;2022-12-26T00:03:51;2.30;;;2.10;;
11651;SDS011;5882;48.818;9.114;2022-12-26T00:06:19;1.55;;;1.45;;
11651;SDS011;5882;48.818;9.114;2022-12-26T00:08:46;1.60;;;1.50;;
11651;SDS011;5882;48.818;9.114;2022-12-26T00:11:12;1.52;;;1.42;;
11651;SDS011;5882;48.818;9.114;2022-12-26T00:13:39;1.73;;;1.30;;
11651;SDS011;5882;48.818;9.114;2022-12-26T00:16:06;1.90;;;1.70;;
11651;SDS011;5882;48.818;9.114;2022-12-26T00:18:33;1.48;;;1.30;;
11651;SDS011;5882;48.818;9.114;2022-12-26T00:21:01;1.30;;;1.30;;
11651;SDS011;5882;48.818;9.114;2022-12-26T00:23:28;1.45;;;1.35;;
11651;SDS011;5882;48.818;9.114;2022-12-26T00:25:54;2.42;;;1.65;;
11651;SDS011;5882;48.818;9.114;2022-12-26T00:28:21;1.60;;;1.50;;
11651;SDS011;5882;48.818;9.114;2022-12-26T00:30:47;1.88;;;1.70;;
11651;SDS011;5882;48.818;9.114;2022-12-26T00:33:14;2.03;;;1.60;;
11651;SDS011;5882;48.818;9.114;2022-12-26T00:35:40;1.50;;;1.40;;
11651;SDS011;5882;48.818;9.114;2022-12-26T00:38:08;2.33;;;1.80;;
11651;SDS011;5882;48.818;9.114;2022-12-26T00:40:35;1.70;;;1.60;;
11651;SDS011;5882;48.818;9.114;2022-12-26T00:43:07;1.95;;;1.65;;
11651;SDS011;5882;48.818;9.114;2022-12-26T00:45:33;1.80;;;1.40;;
11651;SDS011;5882;48.818;9.114;2022-12-26T00:48:00;2.38;;;1.45;;
11651;SDS011;5882;48.818;9.114;2022-12-26T00:50:26;1.38;;;1.25;;
11651;SDS011;5882;48.818;9.114;2022-12-26T00:52:53;2.63;;;1.48;;
11651;SDS011;5882;48.818;9.114;2022-12-26T00:55:22;1.60;;;1.50;;
11651;SDS011;5882;48.818;9.114;2022-12-26T00:57:48;1.77;;;1.50;;
11651;SDS011;5882;48.818;9.114;2022-12-26T01:00:15;1.98;;;1.60;;
11651;SDS011;5882;48.818;9.114;2022-12-26T01:02:42;1.77;;;1.67;;
11651;SDS011;5882;48.818;9.114;2022-12-26T01:05:09;1.63;;;1.52;;
11651;SDS011;5882;48.818;9.114;2022-12-26T01:07:37;2.00;;;1.90;;
11651;SDS011;5882;48.818;9.114;2022-12-26T01:10:04;1.73;;;1.63;;
11651;SDS011;5882;48.818;9.114;2022-12-26T01:12:35;1.95;;;1.70;;
11651;SDS011;5882;48.818;9.114;2022-12-26T01:15:01;1.63;;;1.52;;
11651;SDS011;5882;48.818;9.114;2022-12-26T01:17:28;1.80;;;1.60;;
11651;SDS011;5882;48.818;9.114;2022-12-26T01:19:55;3.92;;;1.70;;
11651;SDS011;5882;48.818;9.114;2022-12-26T01:22:21;1.90;;;1.70;;
11651;SDS011;5882;48.818;9.114;2022-12-26T01:24:48;1.70;;;1.60;;
11651;SDS011;5882;48.818;9.114;2022-12-26T01:27:14;1.75;;;1.65;;
11651;SDS011;5882;48.818;9.114;2022-12-26T01:29:42;1.60;;;1.50;;
11651;SDS011;5882;48.818;9.114;2022-12-26T01:32:09;3.28;;;1.60;;
11651;SDS011;5882;48.818;9.114;2022-12-26T01:34:36;1.70;;;1.60;;
11651;SDS011;5882;48.818;9.114;2022-12-26T01:37:02;1.80;;;1.70;;
11651;SDS011;5882;48.818;9.114;2022-12-26T01:39:28;1.92;;;1.70;;
11651;SDS011;5882;48.818;9.114;2022-12-26T01:41:55;1.92;;;1.60;;
11651;SDS011;5882;48.818;9.114;2022-12-26T01:47:08;1.90;;;1.73;;
11651;SDS011;5882;48.818;9.114;2022-12-26T01:49:35;1.55;;;1.45;;
11651;SDS011;5882;48.818;9.114;2022-12-26T01:52:03;2.00;;;1.83;;
11651;SDS011;5882;48.818;9.114;2022-12-26T01:54:32;1.90;;;1.80;;
11651;SDS011;5882;48.818;9.114;2022-12-26T01:57:00;2.20;;;2.00;;
11651;SDS011;5882;48.818;9.114;2022-12-26T01:59:27;1.83;;;1.73;;
11651;SDS011;5882;48.818;9.114;2022-12-26T02:01:55;1.77;;;1.63;;
11651;SDS011;5882;48.818;9.114;2022-12-26T02:04:25;1.42;;;1.33;;
11651;SDS011;5882;48.818;9.114;2022-12-26T02:07:09;1.85;;;1.65;;
11651;SDS011;5882;48.818;9.114;2022-12-26T02:09:36;1.58;;;1.48;;
11651;SDS011;5882;48.818;9.114;2022-12-26T02:12:03;1.60;;;1.50;;
11651;SDS011;5882;48.818;9.114;2022-12-26T02:14:32;1.60;;;1.50;;
11651;SDS011;5882;48.818;9.114;2022-12-26T02:16:58;2.28;;;1.80;;
11651;SDS011;5882;48.818;9.114;2022-12-26T02:19:30;1.40;;;1.30;;
11651;SDS011;5882;48.818;9.114;2022-12-26T02:22:09;1.70;;;1.60;;
11651;SDS011;5882;48.818;9.114;2022-12-26T02:24:48;1.50;;;1.40;;
11651;SDS011;5882;48.818;9.114;2022-12-26T02:27:21;2.35;;;1.58;;
11651;SDS011;5882;48.818;9.114;2022-12-26T02:35:20;2.00;;;1.85;;
11651;SDS011;5882;48.818;9.114;2022-12-26T02:37:52;1.95;;;1.60;;
11651;SDS011;5882;48.818;9.114;2022-12-26T02:40:26;2.65;;;1.50;;
11651;SDS011;5882;48.818;9.114;2022-12-26T02:42:56;3.08;;;1.63;;
11651;SDS011;5882;48.818;9.114;2022-12-26T02:45:24;1.85;;;1.67;;
11651;SDS011;5882;48.818;9.114;2022-12-26T02:48:11;1.40;;;1.30;;
11651;SDS011;5882;48.818;9.114;2022-12-26T02:50:45;1.92;;;1.60;;
11651;SDS011;5882;48.818;9.114;2022-12-26T02:53:38;1.30;;;1.20;;
11651;SDS011;5882;48.818;9.114;2022-12-26T02:56:26;1.88;;;1.77;;
11651;SDS011;5882;48.818;9.114;2022-12-26T02:59:14;1.73;;;1.60;;
11651;SDS011;5882;48.818;9.114;2022-12-26T03:02:01;1.58;;;1.30;;
11651;SDS011;5882;48.818;9.114;2022-12-26T03:04:46;4.82;;;1.60;;
11651;SDS011;5882;48.818;9.114;2022-12-26T03:07:45;1.60;;;1.50;;
11651;SDS011;5882;48.818;9.114;2022-12-26T03:10:30;1.30;;;1.20;;
11651;SDS011;5882;48.818;9.114;2022-12-26T03:13:16;1.67;;;1.58;;
11651;SDS011;5882;48.818;9.114;2022-12-26T03:15:46;1.50;;;1.40;;
11651;SDS011;5882;48.818;9.114;2022-12-26T03:18:31;1.50;;;1.40;;
11651;SDS011;5882;48.818;9.114;2022-12-26T03:20:59;1.50;;;1.40;;
11651;SDS011;5882;48.818;9.114;2022-12-26T03:23:27;1.50;;;1.40;;
11651;SDS011;5882;48.818;9.114;2022-12-26T03:25:56;1.98;;;1.73;;
11651;SDS011;5882;48.818;9.114;2022-12-26T03:28:40;1.75;;;1.60;;
11651;SDS011;5882;48.818;9.114;2022-12-26T03:31:09;1.63;;;1.42;;
11651;SDS011;5882;48.818;9.114;2022-12-26T03:33:36;1.95;;;1.65;;
11651;SDS011;5882;48.818;9.114;2022-12-26T03:36:34;1.50;;;1.40;;
11651;SDS011;5882;48.818;9.114;2022-12-26T03:39:07;1.77;;;1.67;;
11651;SDS011;5882;48.818;9.114;2022-12-26T03:41:37;1.85;;;1.75;;
11651;SDS011;5882;48.818;9.114;2022-12-26T03:44:28;1.80;;;1.70;;
11651;SDS011;5882;48.818;9.114;2022-12-26T03:47:16;1.73;;;1.52;;
11651;SDS011;5882;48.818;9.114;2022-12-26T03:50:05;1.58;;;1.48;;
11651;SDS011;5882;48.818;9.114;2022-12-26T03:52:51;1.40;;;1.30;;
11651;SDS011;5882;48.818;9.114;2022-12-26T03:55:41;1.55;;;1.40;;
11651;SDS011;5882;48.818;9.114;2022-12-26T03:58:29;1.60;;;1.50;;
11651;SDS011;5882;48.818;9.114;2022-12-26T04:01:15;1.40;;;1.23;;
11651;SDS011;5882;48.818;9.114;2022-12-26T04:04:01;1.52;;;1.42;;
11651;SDS011;5882;48.818;9.114;2022-12-26T04:06:47;1.42;;;1.33;;
11651;SDS011;5882;48.818;9.114;2022-12-26T04:09:33;1.60;;;1.50;;
11651;SDS011;5882;48.818;9.114;2022-12-26T04:12:19;1.20;;;1.10;;
11651;SDS011;5882;48.818;9.114;2022-12-26T04:15:05;1.40;;;1.30;;
11651;SDS011;5882;48.818;9.114;2022-12-26T04:17:55;1.48;;;1.38;;
11651;SDS011;5882;48.818;9.114;2022-12-26T04:20:40;1.40;;;1.30;;
11651;SDS011;5882;48.818;9.114;2022-12-26T04:23:10;1.60;;;1.50;;
11651;SDS011;5882;48.818;9.114;2022-12-26T04:25:56;1.50;;;1.40;;
11651;SDS011;5882;48.818;9.114;2022-12-26T04:28:43;1.10;;;1.10;;
11651;SDS011;5882;48.818;9.114;2022-12-26T04:31:28;1.48;;;1.38;;
11651;SDS011;5882;48.818;9.114;2022-12-26T04:34:14;1.65;;;1.55;;
11651;SDS011;5882;48.818;9.114;2022-12-26T04:37:01;1.60;;;1.38;;
11651;SDS011;5882;48.818;9.114;2022-12-26T04:39:47;1.27;;;1.20;;
11651;SDS011;5882;48.818;9.114;2022-12-26T04:42:32;1.50;;;1.40;;
11651;SDS011;5882;48.818;9.114;2022-12-26T04:45:19;1.50;;;1.40;;
11651;SDS011;5882;48.818;9.114;2022-12-26T04:47:46;2.38;;;1.60;;
11651;SDS011;5882;48.818;9.114;2022-12-26T04:50:26;1.45;;;1.35;;
11651;SDS011;5882;48.818;9.114;2022-12-26T04:52:52;1.40;;;1.30;;
11651;SDS011;5882;48.818;9.114;2022-12-26T04:55:25;1.50;;;1.40;;
11651;SDS011;5882;48.818;9.114;2022-12-26T04:57:52;2.30;;;1.63;;
11651;SDS011;5882;48.818;9.114;2022-12-26T05:00:20;2.70;;;1.60;;
11651;SDS011;5882;48.818;9.114;2022-12-26T05:02:49;1.40;;;1.30;;
11651;SDS011;5882;48.818;9.114;2022-12-26T05:05:33;1.67;;;1.58;;
11651;SDS011;5882;48.818;9.114;2022-12-26T05:08:21;1.27;;;1.17;;
11651;SDS011;5882;48.818;9.114;2022-12-26T05:11:06;1.30;;;1.20;;
11651;SDS011;5882;48.818;9.114;2022-12-26T05:13:32;1.60;;;1.50;;
11651;SDS011;5882;48.818;9.114;2022-12-26T05:16:00;1.52;;;1.42;;
11651;SDS011;5882;48.818;9.114;2022-12-26T05:18:44;1.45;;;1.35;;
11651;SDS011;5882;48.818;9.114;2022-12-26T05:21:28;1.40;;;1.30;;
11651;SDS011;5882;48.818;9.114;2022-12-26T05:24:12;1.50;;;1.40;;
11651;SDS011;5882;48.818;9.114;2022-12-26T05:26:56;1.52;;;1.42;;
11651;SDS011;5882;48.818;9.114;2022-12-26T05:29:39;1.70;;;1.60;;
11651;SDS011;5882;48.818;9.114;2022-12-26T05:32:07;1.35;;;1.27;;
11651;SDS011;5882;48.818;9.114;2022-12-26T05:34:33;1.35;;;1.25;;
11651;SDS011;5882;48.818;9.114;2022-12-26T05:36:59;1.52;;;1.42;;
11651;SDS011;5882;48.818;9.114;2022-12-26T05:39:25;1.45;;;1.35;;
11651;SDS011;5882;48.818;9.114;2022-12-26T05:41:52;1.63;;;1.52;;
11651;SDS011;5882;48.818;9.114;2022-12-26T05:44:18;1.70;;;1.60;;
11651;SDS011;5882;48.818;9.114;2022-12-26T05:46:45;1.50;;;1.40;;
11651;SDS011;5882;48.818;9.114;2022-12-26T05:49:13;1.88;;;1.55;;
11651;SDS011;5882;48.818;9.114;2022-12-26T05:51:39;1.50;;;1.40;;
11651;SDS011;5882;48.818;9.114;2022-12-26T05:54:06;1.40;;;1.30;;
11651;SDS011;5882;48.818;9.114;2022-12-26T05:56:32;1.95;;;1.75;;
11651;SDS011;5882;48.818;9.114;2022-12-26T05:58:59;2.03;;;1.60;;
11651;SDS011;5882;48.818;9.114;2022-12-26T06:01:26;3.55;;;1.60;;
11651;SDS011;5882;48.818;9.114;2022-12-26T06:03:54;1.73;;;1.50;;
11651;SDS011;5882;48.818;9.114;2022-12-26T06:06:22;2.22;;;1.42;;
11651;SDS011;5882;48.818;9.114;2022-12-26T06:08:49;3.08;;;1.30;;
11651;SDS011;5882;48.818;9.114;2022-12-26T06:11:15;1.65;;;1.20;;
11651;SDS011;5882;48.818;9.114;2022-12-26T06:13:42;2.47;;;1.60;;
11651;SDS011;5882;48.818;9.114;2022-12-26T06:16:10;2.03;;;1.40;;
11651;SDS011;5882;48.818;9.114;2022-12-26T06:18:36;2.10;;;1.50;;
11651;SDS011;5882;48.818;9.114;2022-12-26T06:21:04;1.30;;;1.20;;
11651;SDS011;5882;48.818;9.114;2022-12-26T06:23:32;1.63;;;1.50;;
11651;SDS011;5882;48.818;9.114;2022-12-26T06:25:58;1.70;;;1.45;;
11651;SDS011;5882;48.818;9.114;2022-12-26T06:28:25;1.45;;;1.35;;
11651;SDS011;5882;48.818;9.114;2022-12-26T06:30:52;2.22;;;1.33;;
11651;SDS011;5882;48.818;9.114;2022-12-26T06:33:18;1.48;;;1.38;;
11651;SDS011;5882;48.818;9.114;2022-12-26T06:35:45;1.77;;;1.50;;
11651;SDS011;5882;48.818;9.114;2022-12-26T06:38:11;1.75;;;1.65;;
11651;SDS011;5882;48.818;9.114;2022-12-26T06:40:39;1.75;;;1.55;;
11651;SDS011;5882;48.818;9.114;2022-12-26T06:43:06;1.60;;;1.50;;
11651;SDS011;5882;48.818;9.114;2022-12-26T06:45:33;1.70;;;1.60;;
11651;SDS011;5882;48.818;9.114;2022-12-26T06:47:59;2.97;;;1.52;;
11651;SDS011;5882;48.818;9.114;2022-12-26T06:50:26;1.95;;;1.60;;
11651;SDS011;5882;48.818;9.114;2022-12-26T06:52:52;1.45;;;1.35;;
11651;SDS011;5882;48.818;9.114;2022-12-26T06:55:19;2.13;;;1.48;;
11651;SDS011;5882;48.818;9.114;2022-12-26T06:57:47;1.58;;;1.48;;
11651;SDS011;5882;48.818;9.114;2022-12-26T07:00:14;2.88;;;1.60;;
11651;SDS011;5882;48.818;9.114;2022-12-26T07:02:40;1.65;;;1.50;;
11651;SDS011;5882;48.818;9.114;2022-12-26T07:05:07;1.65;;;1.55;;
11651;SDS011;5882;48.818;9.114;2022-12-26T07:07:33;1.63;;;1.52;;
11651;SDS011;5882;48.818;9.114;2022-12-26T07:10:00;1.50;;;1.40;;
11651;SDS011;5882;48.818;9.114;2022-12-26T07:12:26;1.50;;;1.40;;
11651;SDS011;5882;48.818;9.114;2022-12-26T07:14:54;1.50;;;1.40;;
11651;SDS011;5882;48.818;9.114;2022-12-26T07:17:20;1.95;;;1.70;;
11651;SDS011;5882;48.818;9.114;2022-12-26T07:19:47;1.38;;;1.27;;
11651;SDS011;5882;48.818;9.114;2022-12-26T07:22:13;1.60;;;1.50;;
11651;SDS011;5882;48.818;9.114;2022-12-26T07:24:40;1.50;;;1.40;;
11651;SDS011;5882;48.818;9.114;2022-12-26T07:27:06;1.67;;;1.58;;
11651;SDS011;5882;48.818;9.114;2022-12-26T07:29:32;2.40;;;1.70;;
11651;SDS011;5882;48.818;9.114;2022-12-26T07:32:00;1.60;;;1.42;;
11651;SDS011;5882;48.818;9.114;2022-12-26T07:34:27;1.65;;;1.55;;
11651;SDS011;5882;48.818;9.114;2022-12-26T07:36:56;1.75;;;1.65;;
11651;SDS011;5882;48.818;9.114;2022-12-26T07:39:23;1.58;;;1.48;;
11651;SDS011;5882;48.818;9.114;2022-12-26T07:41:50;1.40;;;1.30;;
11651;SDS011;5882;48.818;9.114;2022-12-26T07:44:25;2.65;;;1.52;;
11651;SDS011;5882;48.818;9.114;2022-12-26T07:46:52;2.65;;;1.33;;
11651;SDS011;5882;48.818;9.114;2022-12-26T07:49:21;1.73;;;1.60;;
11651;SDS011;5882;48.818;9.114;2022-12-26T07:51:48;1.40;;;1.30;;
11651;SDS011;5882;48.818;9.114;2022-12-26T07:54:14;1.40;;;1.30;;
11651;SDS011;5882;48.818;9.114;2022-12-26T07:56:41;2.75;;;1.48;;
11651;SDS011;5882;48.818;9.114;2022-12-26T07:59:10;1.55;;;1.45;;
11651;SDS011;5882;48.818;9.114;2022-12-26T08:01:37;2.45;;;1.40;;
11651;SDS011;5882;48.818;9.114;2022-12-26T08:04:03;1.60;;;1.50;;
11651;SDS011;5882;48.818;9.114;2022-12-26T08:06:31;1.38;;;1.27;;
11651;SDS011;5882;48.818;9.114;2022-12-26T08:08:58;1.70;;;1.60;;
11651;SDS011;5882;48.818;9.114;2022-12-26T08:11:24;1.45;;;1.35;;
11651;SDS011;5882;48.818;9.114;2022-12-26T08:13:51;1.52;;;1.42;;
11651;SDS011;5882;48.818;9.114;2022-12-26T08:16:17;1.80;;;1.70;;
11651;SDS011;5882;48.818;9.114;2022-12-26T08:18:44;1.50;;;1.40;;
11651;SDS011;5882;48.818;9.114;2022-12-26T08:21:10;1.40;;;1.30;;
11651;SDS011;5882;48.818;9.114;2022-12-26T08:23:39;3.50;;;1.60;;
11651;SDS011;5882;48.818;9.114;2022-12-26T08:26:06;1.48;;;1.38;;
11651;SDS011;5882;48.818;9.114;2022-12-26T08:28:33;1.77;;;1.67;;
11651;SDS011;5882;48.818;9.114;2022-12-26T08:30:59;1.60;;;1.50;;
11651;SDS011;5882;48.818;9.114;2022-12-26T08:33:30;2.05;;;1.88;;
11651;SDS011;5882;48.818;9.114;2022-12-26T08:35:59;2.17;;;1.50;;
11651;SDS011;5882;48.818;9.114;2022-12-26T08:38:26;1.67;;;1.58;;
11651;SDS011;5882;48.818;9.114;2022-12-26T08:40:54;2.03;;;1.52;;
11651;SDS011;5882;48.818;9.114;2022-12-26T08:43:21;1.63;;;1.52;;
11651;SDS011;5882;48.818;9.114;2022-12-26T08:45:55;1.83;;;1.70;;
11651;SDS011;5882;48.818;9.114;2022-12-26T08:48:22;3.05;;;1.90;;
11651;SDS011;5882;48.818;9.114;2022-12-26T08:50:53;2.58;;;1.92;;
11651;SDS011;5882;48.818;9.114;2022-12-26T08:53:20;2.17;;;1.95;;
11651;SDS011;5882;48.818;9.114;2022-12-26T08:55:46;2.00;;;1.75;;
11651;SDS011;5882;48.818;9.114;2022-12-26T08:58:14;2.30;;;1.65;;
11651;SDS011;5882;48.818;9.114;2022-12-26T09:00:41;3.53;;;1.75;;
11651;SDS011;5882;48.818;9.114;2022-12-26T09:03:07;2.00;;;1.90;;
11651;SDS011;5882;48.818;9.114;2022-12-26T09:05:34;1.88;;;1.77;;
11651;SDS011;5882;48.818;9.114;2022-12-26T09:08:00;1.73;;;1.63;;
11651;SDS011;5882;48.818;9.114;2022-12-26T09:10:27;2.03;;;1.85;;
11651;SDS011;5882;48.818;9.114;2022-12-26T09:12:54;2.00;;;1.80;;
11651;SDS011;5882;48.818;9.114;2022-12-26T09:15:22;1.70;;;1.60;;
11651;SDS011;5882;48.818;9.114;2022-12-26T09:17:48;1.70;;;1.60;;
11651;SDS011;5882;48.818;9.114;2022-12-26T09:20:15;2.05;;;1.80;;
11651;SDS011;5882;48.818;9.114;2022-12-26T09:22:41;1.80;;;1.70;;
11651;SDS011;5882;48.818;9.114;2022-12-26T09:25:18;1.80;;;1.70;;
11651;SDS011;5882;48.818;9.114;2022-12-26T09:27:45;2.95;;;2.08;;
11651;SDS011;5882;48.818;9.114;2022-12-26T09:30:12;1.90;;;1.80;;
11651;SDS011;5882;48.818;9.114;2022-12-26T09:32:40;2.42;;;1.90;;
11651;SDS011;5882;48.818;9.114;2022-12-26T09:35:07;1.60;;;1.50;;
11651;SDS011;5882;48.818;9.114;2022-12-26T09:37:33;3.17;;;1.77;;
11651;SDS011;5882;48.818;9.114;2022-12-26T09:40:00;2.20;;;1.85;;
11651;SDS011;5882;48.818;9.114;2022-12-26T09:42:31;2.17;;;1.98;;
11651;SDS011;5882;48.818;9.114;2022-12-26T09:44:59;2.10;;;1.90;;
11651;SDS011;5882;48.818;9.114;2022-12-26T09:47:31;2.25;;;1.92;;
11651;SDS011;5882;48.818;9.114;2022-12-26T09:49:59;1.90;;;1.80;;
11651;SDS011;5882;48.818;9.114;2022-12-26T09:52:31;2.50;;;2.08;;
11651;SDS011;5882;48.818;9.114;2022-12-26T09:55:01;3.20;;;2.15;;
11651;SDS011;5882;48.818;9.114;2022-12-26T09:57:29;2.15;;;1.95;;
11651;SDS011;5882;48.818;9.114;2022-12-26T09:59:59;2.30;;;2.10;;
11651;SDS011;5882;48.818;9.114;2022-12-26T10:02:28;2.47;;;2.28;;
11651;SDS011;5882;48.818;9.114;2022-12-26T10:04:55;2.80;;;2.33;;
11651;SDS011;5882;48.818;9.114;2022-12-26T10:07:24;2.03;;;1.92;;
11651;SDS011;5882;48.818;9.114;2022-12-26T10:09:55;2.50;;;2.30;;
11651;SDS011;5882;48.818;9.114;2022-12-26T10:12:30;2.30;;;2.10;;
11651;SDS011;5882;48.818;9.114;2022-12-26T10:15:02;1.92;;;1.83;;
11651;SDS011;5882;48.818;9.114;2022-12-26T10:17:32;2.78;;;2.30;;
11651;SDS011;5882;48.818;9.114;2022-12-26T10:20:07;2.35;;;2.03;;
11651;SDS011;5882;48.818;9.114;2022-12-26T10:25:23;2.28;;;2.08;;
11651;SDS011;5882;48.818;9.114;2022-12-26T10:27:50;2.53;;;2.33;;
11651;SDS011;5882;48.818;9.114;2022-12-26T10:30:19;2.22;;;1.95;;
11651;SDS011;5882;48.818;9.114;2022-12-26T10:32:47;2.88;;;2.10;;
11651;SDS011;5882;48.818;9.114;2022-12-26T10:35:19;2.03;;;1.92;;
11651;SDS011;5882;48.818;9.114;2022-12-26T10:37:47;1.55;;;1.45;;
11651;SDS011;5882;48.818;9.114;2022-12-26T10:40:16;3.13;;;1.50;;
11651;SDS011;5882;48.818;9.114;2022-12-26T10:42:45;1.42;;;1.33;;
11651;SDS011;5882;48.818;9.114;2022-12-26T10:45:14;1.40;;;1.30;;
11651;SDS011;5882;48.818;9.114;2022-12-26T10:47:41;3.33;;;1.52;;
11651;SDS011;5882;48.818;9.114;2022-12-26T10:50:10;2.78;;;1.50;;
11651;SDS011;5882;48.818;9.114;2022-12-26T10:52:40;1.77;;;1.40;;
11651;SDS011;5882;48.818;9.114;2022-12-26T10:55:11;1.45;;;1.35;;
11651;SDS011;5882;48.818;9.114;2022-12-26T10:57:38;1.40;;;1.30;;
11651;SDS011;5882;48.818;9.114;2022-12-26T11:00:12;1.75;;;1.25;;
11651;SDS011;5882;48.818;9.114;2022-12-26T11:02:39;1.10;;;1.10;;
11651;SDS011;5882;48.818;9.114;2022-12-26T11:05:06;1.27;;;1.17;;
11651;SDS011;5882;48.818;9.114;2022-12-26T11:07:34;1.42;;;1.20;;
11651;SDS011;5882;48.818;9.114;2022-12-26T11:10:01;1.35;;;1.25;;
11651;SDS011;5882;48.818;9.114;2022-12-26T11:12:31;1.20;;;1.20;;
11651;SDS011;5882;48.818;9.114;2022-12-26T11:15:02;1.13;;;1.10;;
11651;SDS011;5882;48.818;9.114;2022-12-26T11:17:32;1.40;;;1.30;;
11651;SDS011;5882;48.818;9.114;2022-12-26T11:20:08;1.25;;;1.15;;
11651;SDS011;5882;48.818;9.114;2022-12-26T11:22:35;1.15;;;1.13;;
11651;SDS011;5882;48.818;9.114;2022-12-26T11:25:09;0.95;;;0.95;;
11651;SDS011;5882;48.818;9.114;2022-12-26T11:27:36;0.93;;;0.93;;
11651;SDS011;5882;48.818;9.114;2022-12-26T11:30:15;1.00;;;1.00;;
11651;SDS011;5882;48.818;9.114;2022-12-26T11:32:44;1.00;;;1.00;;
11651;SDS011;5882;48.818;9.114;2022-12-26T11:35:15;1.05;;;1.05;;
11651;SDS011;5882;48.818;9.114;2022-12-26T11:37:43;1.10;;;1.10;;
11651;SDS011;5882;48.818;9.114;2022-12-26T11:40:14;1.20;;;1.10;;
11651;SDS011;5882;48.818;9.114;2022-12-26T11:42:41;1.08;;;1.08;;
11651;SDS011;5882;48.818;9.114;2022-12-26T11:45:09;1.23;;;1.13;;
11651;SDS011;5882;48.818;9.114;2022-12-26T11:47:36;0.90;;;0.90;;
11651;SDS011;5882;48.818;9.114;2022-12-26T11:50:05;0.82;;;0.82;;
11651;SDS011;5882;48.818;9.114;2022-12-26T11:52:34;0.80;;;0.80;;
11651;SDS011;5882;48.818;9.114;2022-12-26T11:55:01;0.80;;;0.80;;
11651;SDS011;5882;48.818;9.114;2022-12-26T11:57:28;2.97;;;0.82;;
11651;SDS011;5882;48.818;9.114;2022-12-26T11:59:55;0.80;;;0.80;;
11651;SDS011;5882;48.818;9.114;2022-12-26T12:02:39;0.80;;;0.80;;
11651;SDS011;5882;48.818;9.114;2022-12-26T12:05:11;0.70;;;0.70;;
11651;SDS011;5882;48.818;9.114;2022-12-26T12:10:43;0.70;;;0.70;;
11651;SDS011;5882;48.818;9.114;2022-12-26T12:13:15;0.70;;;0.70;;
11651;SDS011;5882;48.818;9.114;2022-12-26T12:15:46;1.10;;;1.00;;
11651;SDS011;5882;48.818;9.114;2022-12-26T12:18:17;0.80;;;0.80;;
11651;SDS011;5882;48.818;9.114;2022-12-26T12:20:50;0.70;;;0.70;;
11651;SDS011;5882;48.818;9.114;2022-12-26T12:23:24;0.90;;;0.90;;
11651;SDS011;5882;48.818;9.114;2022-12-26T12:26:00;0.70;;;0.70;;
11651;SDS011;5882;48.818;9.114;2022-12-26T12:28:35;0.90;;;0.90;;
11651;SDS011;5882;48.818;9.114;2022-12-26T12:31:06;0.82;;;0.82;;
11651;SDS011;5882;48.818;9.114;2022-12-26T12:33:40;0.88;;;0.88;;
11651;SDS011;5882;48.818;9.114;2022-12-26T12:36:12;0.80;;;0.80;;
11651;SDS011;5882;48.818;9.114;2022-12-26T12:38:48;0.80;;;0.80;;
11651;SDS011;5882;48.818;9.114;2022-12-26T12:41:22;0.90;;;0.90;;
11651;SDS011;5882;48.818;9.114;2022-12-26T12:43:53;0.70;;;0.70;;
11651;SDS011;5882;48.818;9.114;2022-12-26T12:46:22;0.90;;;0.90;;
11651;SDS011;5882;48.818;9.114;2022-12-26T12:49:04;1.08;;;1.08;;
11651;SDS011;5882;48.818;9.114;2022-12-26T12:51:37;0.82;;;0.82;;
11651;SDS011;5882;48.818;9.114;2022-12-26T12:56:49;0.90;;;0.90;;
11651;SDS011;5882;48.818;9.114;2022-12-26T12:59:20;0.85;;;0.85;;
11651;SDS011;5882;48.818;9.114;2022-12-26T13:01:50;0.82;;;0.82;;
11651;SDS011;5882;48.818;9.114;2022-12-26T13:04:20;0.75;;;0.75;;
11651;SDS011;5882;48.818;9.114;2022-12-26T13:06:49;0.90;;;0.90;;
11651;SDS011;5882;48.818;9.114;2022-12-26T13:09:18;1.08;;;1.00;;
11651;SDS011;5882;48.818;9.114;2022-12-26T13:11:45;1.23;;;1.10;;
11651;SDS011;5882;48.818;9.114;2022-12-26T13:14:15;0.90;;;0.90;;
11651;SDS011;5882;48.818;9.114;2022-12-26T13:16:44;1.10;;;1.00;;
11651;SDS011;5882;48.818;9.114;2022-12-26T13:19:15;0.80;;;0.80;;
11651;SDS011;5882;48.818;9.114;2022-12-26T13:21:42;0.80;;;0.80;;
11651;SDS011;5882;48.818;9.114;2022-12-26T13:24:12;0.80;;;0.80;;
11651;SDS011;5882;48.818;9.114;2022-12-26T13:26:50;0.75;;;0.75;;
11651;SDS011;5882;48.818;9.114;2022-12-26T13:29:19;0.73;;;0.73;;
11651;SDS011;5882;48.818;9.114;2022-12-26T13:31:50;1.02;;;0.98;;
11651;SDS011;5882;48.818;9.114;2022-12-26T13:34:18;0.90;;;0.90;;
11651;SDS011;5882;48.818;9.114;2022-12-26T13:36:45;0.73;;;0.73;;
11651;SDS011;5882;48.818;9.114;2022-12-26T13:39:26;2.58;;;0.80;;
11651;SDS011;5882;48.818;9.114;2022-12-26T13:41:55;0.80;;;0.80;;
11651;SDS011;5882;48.818;9.114;2022-12-26T13:44:40;0.90;;;0.90;;
11651;SDS011;5882;48.818;9.114;2022-12-26T13:49:49;0.88;;;0.70;;
11651;SDS011;5882;48.818;9.114;2022-12-26T13:52:22;0.70;;;0.70;;
11651;SDS011;5882;48.818;9.114;2022-12-26T13:57:37;0.70;;;0.70;;
11651;SDS011;5882;48.818;9.114;2022-12-26T14:02:53;1.00;;;0.90;;
11651;SDS011;5882;48.818;9.114;2022-12-26T14:05:23;1.45;;;0.95;;
11651;SDS011;5882;48.818;9.114;2022-12-26T14:07:53;0.90;;;0.90;;
11651;SDS011;5882;48.818;9.114;2022-12-26T14:10:23;1.85;;;1.00;;
11651;SDS011;5882;48.818;9.114;2022-12-26T14:12:59;1.98;;;1.27;;
11651;SDS011;5882;48.818;9.114;2022-12-26T14:15:30;0.90;;;0.90;;
11651;SDS011;5882;48.818;9.114;2022-12-26T14:18:12;1.10;;;1.00;;
11651;SDS011;5882;48.818;9.114;2022-12-26T14:20:42;0.80;;;0.80;;
11651;SDS011;5882;48.818;9.114;2022-12-26T14:23:18;0.88;;;0.88;;
11651;SDS011;5882;48.818;9.114;2022-12-26T14:25:48;0.93;;;0.93;;
11651;SDS011;5882;48.818;9.114;2022-12-26T14:28:20;0.90;;;0.90;;
11651;SDS011;5882;48.818;9.114;2022-12-26T14:30:51;0.90;;;0.90;;
11651;SDS011;5882;48.818;9.114;2022-12-26T14:33:22;0.80;;;0.80;;
11651;SDS011;5882;48.818;9.114;2022-12-26T14:35:56;1.08;;;1.05;;
11651;SDS011;5882;48.818;9.114;2022-12-26T14:38:28;0.90;;;0.90;;
11651;SDS011;5882;48.818;9.114;2022-12-26T14:40:59;1.10;;;1.10;;
11651;SDS011;5882;48.818;9.114;2022-12-26T14:43:32;0.80;;;0.80;;
11651;SDS011;5882;48.818;9.114;2022-12-26T14:45:58;1.40;;;1.20;;
11651;SDS011;5882;48.818;9.114;2022-12-26T14:48:46;1.08;;;1.02;;
11651;SDS011;5882;48.818;9.114;2022-12-26T14:51:26;1.00;;;1.00;;
11651;SDS011;5882;48.818;9.114;2022-12-26T14:54:08;0.88;;;0.88;;
11651;SDS011;5882;48.818;9.114;2022-12-26T14:56:35;1.23;;;1.13;;
11651;SDS011;5882;48.818;9.114;2022-12-26T15:01:58;1.30;;;1.20;;
11651;SDS011;5882;48.818;9.114;2022-12-26T15:04:32;1.10;;;1.00;;
11651;SDS011;5882;48.818;9.114;2022-12-26T15:07:14;0.90;;;0.90;;
11651;SDS011;5882;48.818;9.114;2022-12-26T15:15:26;0.90;;;0.90;;
11651;SDS011;5882;48.818;9.114;2022-12-26T15:18:04;0.98;;;0.98;;
11651;SDS011;5882;48.818;9.114;2022-12-26T15:20:38;2.00;;;1.70;;
11651;SDS011;5882;48.818;9.114;2022-12-26T15:28:48;1.38;;;1.27;;
11651;SDS011;5882;48.818;9.114;2022-12-26T15:31:22;1.20;;;1.20;;
11651;SDS011;5882;48.818;9.114;2022-12-26T15:33:54;1.05;;;1.00;;
11651;SDS011;5882;48.818;9.114;2022-12-26T15:36:25;1.27;;;1.08;;
11651;SDS011;5882;48.818;9.114;2022-12-26T15:38:56;1.20;;;1.10;;
11651;SDS011;5882;48.818;9.114;2022-12-26T15:41:27;1.50;;;1.00;;
11651;SDS011;5882;48.818;9.114;2022-12-26T15:44:00;1.50;;;1.40;;
11651;SDS011;5882;48.818;9.114;2022-12-26T15:46:28;1.40;;;1.30;;
11651;SDS011;5882;48.818;9.114;2022-12-26T15:49:04;1.10;;;1.00;;
11651;SDS011;5882;48.818;9.114;2022-12-26T15:51:36;1.08;;;1.00;;
11651;SDS011;5882;48.818;9.114;2022-12-26T15:54:11;1.35;;;1.25;;
11651;SDS011;5882;48.818;9.114;2022-12-26T15:56:49;0.95;;;0.95;;
11651;SDS011;5882;48.818;9.114;2022-12-26T16:02:08;1.00;;;1.00;;
11651;SDS011;5882;48.818;9.114;2022-12-26T16:04:38;1.27;;;1.17;;
11651;SDS011;5882;48.818;9.114;2022-12-26T16:07:11;1.55;;;1.20;;